Time;durP1;ratioP1;P1;durP2;ratioP2;P2;SDS_P1;SDS_P2;PMS_P1;PMS_P2;Temp;Humidity;BMP_temperature;BMP_pressure;BME280_temperature;BME280_humidity;BME280_pressure;Samples;Min_cycle;Max_cycle;Signal;HPM_P1;HPM_P2
2022/06/20 00:03:00;;;;;;;9.15;4.32;;;;;;;23.80;49.06;99466.59;30856975;28;101947;-63
2022/06/20 00:18:03;;;;;;;15.33;5.03;;;;;;;23.73;50.55;99457.06;30856155;28;97085;-63
2022/06/20 00:33:04;;;;;;;13.30;5.20;;;;;;;23.83;50.73;99454.34;30853799;28;97109;-70
2022/06/20 00:48:11;;;;;;;13.20;6.57;;;;;;;23.28;51.75;99463.13;30854068;28;96708;-63
2022/06/20 01:03:16;;;;;;;25.07;6.73;;;;;;;22.99;52.93;99447.34;30852789;28;96706;-62
2022/06/20 01:18:21;;;;;;;10.90;4.80;;;;;;;23.09;53.93;99441.09;30851926;28;97388;-63
2022/06/20 01:33:23;;;;;;;12.30;4.63;;;;;;;22.88;54.15;99467.44;30853507;28;96802;-62
2022/06/20 01:48:28;;;;;;;11.40;4.30;;;;;;;22.37;55.72;99486.31;30870871;28;97002;-62
2022/06/20 02:03:31;;;;;;;10.70;4.77;;;;;;;21.88;57.58;99515.31;30869573;28;96750;-63
2022/06/20 02:18:35;;;;;;;13.43;5.00;;;;;;;21.68;59.29;99543.13;30867763;28;97348;-62
2022/06/20 02:33:36;;;;;;;13.07;5.63;;;;;;;21.18;60.52;99555.91;30865841;28;96663;-62
2022/06/20 02:48:38;;;;;;;11.40;6.73;;;;;;;20.55;62.67;99558.19;30862492;28;97415;-62
2022/06/20 03:03:42;;;;;;;12.37;8.50;;;;;;;20.11;64.34;99588.69;30857003;28;97178;-61
2022/06/20 03:18:48;;;;;;;10.60;7.10;;;;;;;19.84;65.71;99565.03;30859921;28;97319;-62
2022/06/20 03:33:48;;;;;;;14.30;7.77;;;;;;;19.78;67.19;99560.59;30858981;28;96759;-62
2022/06/20 03:49:21;;;;;;;15.00;8.07;;;;;;;19.86;67.76;99545.88;30858283;28;97252;-62
2022/06/20 04:04:31;;;;;;;10.03;8.20;;;;;;;19.94;68.14;99548.16;30856038;28;96754;-63
2022/06/20 04:19:38;;;;;;;12.57;7.57;;;;;;;20.14;68.13;99563.06;30855984;28;97374;-62
2022/06/20 04:34:47;;;;;;;10.10;7.43;;;;;;;20.49;67.91;99543.78;30852887;28;97482;-62
2022/06/20 04:49:48;;;;;;;10.20;6.80;;;;;;;20.72;67.49;99548.16;30854406;28;96773;-61
2022/06/20 05:04:53;;;;;;;12.43;6.77;;;;;;;20.92;66.79;99558.34;30851616;28;96690;-62
2022/06/20 05:19:59;;;;;;;11.77;7.77;;;;;;;20.68;66.72;99536.19;30869776;28;96665;-63
2022/06/20 05:35:08;;;;;;;11.13;7.63;;;;;;;20.79;66.92;99505.44;30869585;28;97323;-68
2022/06/20 05:50:31;;;;;;;11.00;7.63;;;;;;;20.85;67.56;99509.03;30868615;28;96777;-70
2022/06/20 06:06:01;;;;;;;12.83;7.80;;;;;;;21.85;66.75;99510.41;30869019;28;96898;-63
2022/06/20 06:21:02;;;;;;;14.03;7.47;;;;;;;22.82;64.98;99476.66;30865704;28;97333;-66
2022/06/20 06:36:11;;;;;;;12.77;6.83;;;;;;;23.24;63.74;99463.97;30865637;28;97287;-63
2022/06/20 06:51:38;;;;;;;12.17;6.37;;;;;;;23.81;61.80;99424.72;30864326;28;96713;-67
2022/06/20 07:06:52;;;;;;;13.80;6.63;;;;;;;24.49;59.95;99378.97;30864802;28;97366;-67
2022/06/20 07:21:55;;;;;;;13.93;7.80;;;;;;;24.91;58.00;99350.34;30858091;28;97343;-63
2022/06/20 07:37:01;;;;;;;11.63;7.27;;;;;;;25.38;56.54;99322.66;30856211;28;96696;-64
2022/06/20 07:52:08;;;;;;;11.13;7.53;;;;;;;25.93;55.22;99322.25;30855542;28;97374;-67
2022/06/20 08:07:20;;;;;;;11.30;6.47;;;;;;;25.52;55.49;99318.16;30857215;28;96642;-65
2022/06/20 08:22:27;;;;;;;13.77;7.27;;;;;;;24.40;57.54;99323.50;30850948;28;97560;-63
2022/06/20 08:37:36;;;;;;;17.80;7.63;;;;;;;23.64;59.76;99297.25;30849399;28;97032;-67
2022/06/20 08:53:05;;;;;;;14.70;8.17;;;;;;;22.45;63.36;99288.50;30845949;28;96772;-65
2022/06/20 09:08:19;;;;;;;11.10;7.70;;;;;;;21.85;66.43;99320.63;30852652;28;97202;-64
2022/06/20 09:23:35;;;;;;;19.47;9.93;;;;;;;22.07;67.68;99262.66;30847133;28;96815;-62
2022/06/20 09:39:15;;;;;;;15.57;10.10;;;;;;;22.31;68.35;99350.59;30841690;28;97034;-62
2022/06/20 09:54:25;;;;;;;14.70;9.40;;;;;;;22.11;68.86;99366.81;30748181;28;97500;-62
2022/06/20 10:09:25;;;;;;;10.63;5.90;;;;;;;21.42;68.91;99455.34;30747097;28;96949;-67
2022/06/20 10:24:29;;;;;;;9.27;6.67;;;;;;;21.10;70.21;99423.69;30745382;28;97339;-63
2022/06/20 10:39:45;;;;;;;12.97;7.67;;;;;;;21.21;70.71;99433.53;30860749;28;96754;-64
2022/06/20 10:54:52;;;;;;;14.87;7.80;;;;;;;20.38;72.89;99371.59;30851629;28;97411;-62
2022/06/20 11:10:11;;;;;;;11.63;7.03;;;;;;;20.63;74.06;99384.56;30858845;28;97248;-63
2022/06/20 11:25:19;;;;;;;9.60;6.53;;;;;;;21.57;72.69;99431.09;30853290;28;96848;-63
2022/06/20 11:40:41;;;;;;;9.40;6.03;;;;;;;22.92;72.08;99397.94;30849854;28;97073;-65
2022/06/20 11:55:49;;;;;;;11.17;5.83;;;;;;;24.27;68.63;99391.06;30847202;28;97383;-62
2022/06/20 12:11:31;;;;;;;12.40;5.43;;;;;;;24.88;66.06;99375.44;30845294;28;97270;-66
2022/06/20 12:26:39;;;;;;;11.53;10.10;;;;;;;24.74;65.44;99378.00;30840776;28;97175;-65
2022/06/20 12:41:46;;;;;;;15.40;10.77;;;;;;;24.13;65.41;99434.41;30843252;28;97225;-62
2022/06/20 12:57:16;;;;;;;13.70;10.17;;;;;;;24.26;64.92;99452.06;30841543;28;97276;-62
2022/06/20 13:12:25;;;;;;;20.33;11.60;;;;;;;24.81;62.77;99410.38;30732982;28;96910;-68
2022/06/20 13:27:40;;;;;;;14.67;10.83;;;;;;;24.82;62.02;99395.63;30725777;28;97158;-61
2022/06/20 13:42:43;;;;;;;11.30;8.70;;;;;;;25.79;59.94;99393.09;30745846;28;97496;-62
2022/06/20 13:58:00;;;;;;;20.00;10.50;;;;;;;24.92;57.63;99441.88;30745427;28;96682;-63
2022/06/20 14:13:05;;;;;;;16.67;10.83;;;;;;;25.04;56.17;99380.75;30744010;28;97292;-65
2022/06/20 14:28:23;;;;;;;14.33;10.07;;;;;;;24.70;55.84;99393.28;30749137;28;96733;-62
2022/06/20 14:43:41;;;;;;;12.07;8.93;;;;;;;23.60;56.44;99385.06;30851233;28;96766;-62
2022/06/20 14:59:00;;;;;;;9.03;7.73;;;;;;;22.18;59.32;99413.50;30854010;28;97659;-64
2022/06/20 15:14:17;;;;;;;6.10;4.90;;;;;;;20.27;62.62;99428.28;30852959;28;97503;-70
2022/06/20 15:29:22;;;;;;;8.90;4.93;;;;;;;19.23;65.67;99462.22;30841613;28;96755;-63
2022/06/20 15:44:57;;;;;;;5.77;4.53;;;;;;;18.78;67.75;99524.03;30844844;28;97445;-70
2022/06/20 16:00:27;;;;;;;1.43;1.30;;;;;;;17.76;68.83;99573.84;30855767;28;96865;-69
2022/06/20 16:15:35;;;;;;;2.80;1.00;;;;;;;17.15;69.51;99610.78;30857071;28;96726;-67
2022/06/20 16:30:38;;;;;;;1.33;0.80;;;;;;;16.44;70.46;99648.00;30851761;28;96979;-62
2022/06/20 16:46:09;;;;;;;3.57;1.60;;;;;;;16.02;71.13;99649.41;30851314;28;96564;-64
2022/06/20 17:01:29;;;;;;;3.60;1.40;;;;;;;15.73;71.74;99669.63;30850541;28;96791;-64
2022/06/20 17:16:47;;;;;;;2.60;1.30;;;;;;;15.76;71.68;99653.09;30868696;28;98300;-63
2022/06/20 17:32:14;;;;;;;2.53;1.40;;;;;;;15.79;72.19;99646.44;30865909;28;97040;-68
2022/06/20 17:47:32;;;;;;;4.03;1.50;;;;;;;15.77;71.18;99637.78;30870212;28;96719;-62
2022/06/20 18:02:48;;;;;;;3.10;1.20;;;;;;;15.51;71.78;99623.50;30868296;28;97416;-66
2022/06/20 18:18:07;;;;;;;1.73;1.23;;;;;;;15.56;71.77;99706.91;30866530;28;97578;-61
2022/06/20 18:33:10;;;;;;;2.60;1.47;;;;;;;15.25;71.83;99699.63;30862330;28;96785;-59
2022/06/20 18:48:15;;;;;;;2.03;1.07;;;;;;;15.01;72.41;99716.22;30852553;28;96761;-60
2022/06/20 19:03:37;;;;;;;3.20;1.27;;;;;;;14.77;72.27;99688.22;30826491;28;97982;-63
2022/06/20 19:18:46;;;;;;;2.47;1.30;;;;;;;14.48;72.98;99714.41;30813842;28;96740;-59
2022/06/20 19:33:49;;;;;;;2.97;1.40;;;;;;;13.93;73.45;99714.63;30859903;28;96812;-61
2022/06/20 19:48:50;;;;;;;4.03;1.47;;;;;;;13.63;73.68;99740.91;30857803;28;97378;-60
2022/06/20 20:03:50;;;;;;;6.80;1.83;;;;;;;13.56;75.09;99748.06;30855514;28;97510;-60
2022/06/20 20:19:08;;;;;;;1.65;1.48;;;;;;;13.29;74.71;99755.97;30857212;28;96695;-60
2022/06/20 20:34:24;;;;;;;3.00;1.50;;;;;;;13.39;75.67;99759.13;30854967;28;96768;-64
2022/06/20 20:49:32;;;;;;;3.80;1.70;;;;;;;13.56;75.81;99773.00;30852012;28;97973;-59
2022/06/20 21:04:41;;;;;;;9.27;1.83;;;;;;;13.75;75.63;99773.25;30853118;28;96756;-61
2022/06/20 21:19:42;;;;;;;2.10;1.30;;;;;;;13.84;75.73;99759.47;30852251;28;97514;-61
2022/06/20 21:34:46;;;;;;;4.32;2.08;;;;;;;13.26;75.60;99767.06;30849889;28;97110;-60
2022/06/20 21:49:47;;;;;;;4.17;2.23;;;;;;;13.01;76.72;99781.75;30851795;28;96741;-61
2022/06/20 22:04:59;;;;;;;4.20;2.93;;;;;;;12.91;76.97;99796.50;30870082;28;97398;-61
2022/06/20 22:20:00;;;;;;;5.97;3.37;;;;;;;12.84;78.07;99791.91;30868086;28;97275;-60
2022/06/20 22:35:26;;;;;;;5.33;3.13;;;;;;;12.80;78.70;99787.16;30866359;28;97353;-61
2022/06/20 22:50:32;;;;;;;5.90;4.03;;;;;;;12.69;77.75;99791.19;30865224;28;96737;-66
2022/06/20 23:05:35;;;;;;;5.47;3.87;;;;;;;12.53;78.03;99811.00;30863272;28;96790;-60
2022/06/20 23:20:37;;;;;;;5.90;4.03;;;;;;;12.30;78.25;99804.03;30862678;28;96882;-61
2022/06/20 23:35:40;;;;;;;6.00;3.10;;;;;;;12.31;78.67;99802.97;30860608;28;96767;-62
2022/06/20 23:50:41;;;;;;;4.37;2.93;;;;;;;12.44;78.04;99780.91;30858870;28;97138;-60
